sensor_id;sensor_type;location;lat;lon;timestamp;temperature;humidity
21832;DHT22;11078;49.872;6.188;2022-08-04T00:01:22;19.60;7.50
21832;DHT22;11078;49.872;6.188;2022-08-04T00:03:54;19.60;5.80
21832;DHT22;11078;49.872;6.188;2022-08-04T00:06:44;19.50;5.50
21832;DHT22;11078;49.872;6.188;2022-08-04T00:09:21;19.50;7.80
21832;DHT22;11078;49.872;6.188;2022-08-04T00:11:52;19.40;5.30
21832;DHT22;11078;49.872;6.188;2022-08-04T00:14:21;19.50;5.30
21832;DHT22;11078;49.872;6.188;2022-08-04T00:16:49;19.40;5.30
21832;DHT22;11078;49.872;6.188;2022-08-04T00:22:02;19.40;6.70
21832;DHT22;11078;49.872;6.188;2022-08-04T00:24:30;19.30;5.30
21832;DHT22;11078;49.872;6.188;2022-08-04T00:26:56;19.20;5.50
21832;DHT22;11078;49.872;6.188;2022-08-04T00:29:23;19.20;5.30
21832;DHT22;11078;49.872;6.188;2022-08-04T00:31:49;19.20;5.40
21832;DHT22;11078;49.872;6.188;2022-08-04T00:34:15;19.10;5.40
21832;DHT22;11078;49.872;6.188;2022-08-04T00:36:43;19.10;5.50
21832;DHT22;11078;49.872;6.188;2022-08-04T00:39:12;19.00;5.70
21832;DHT22;11078;49.872;6.188;2022-08-04T00:41:51;19.00;6.40
21832;DHT22;11078;49.872;6.188;2022-08-04T00:44:52;19.00;8.20
21832;DHT22;11078;49.872;6.188;2022-08-04T00:50:21;18.90;8.10
21832;DHT22;11078;49.872;6.188;2022-08-04T00:58:54;18.80;9.60
21832;DHT22;11078;49.872;6.188;2022-08-04T01:01:43;18.70;7.80
21832;DHT22;11078;49.872;6.188;2022-08-04T01:04:23;18.70;9.90
21832;DHT22;11078;49.872;6.188;2022-08-04T01:12:40;18.60;7.60
21832;DHT22;11078;49.872;6.188;2022-08-04T01:18:06;18.50;10.30
21832;DHT22;11078;49.872;6.188;2022-08-04T01:20:40;18.50;7.10
21832;DHT22;11078;49.872;6.188;2022-08-04T01:23:32;18.50;8.50
21832;DHT22;11078;49.872;6.188;2022-08-04T01:29:10;18.50;9.30
21832;DHT22;11078;49.872;6.188;2022-08-04T01:32:06;18.40;9.60
21832;DHT22;11078;49.872;6.188;2022-08-04T01:34:38;18.40;10.80
21832;DHT22;11078;49.872;6.188;2022-08-04T01:37:11;18.30;7.60
21832;DHT22;11078;49.872;6.188;2022-08-04T01:39:59;18.30;7.60
21832;DHT22;11078;49.872;6.188;2022-08-04T01:42:25;18.30;7.90
21832;DHT22;11078;49.872;6.188;2022-08-04T01:44:52;18.30;7.20
21832;DHT22;11078;49.872;6.188;2022-08-04T01:47:20;18.20;7.30
21832;DHT22;11078;49.872;6.188;2022-08-04T01:49:49;18.20;7.30
21832;DHT22;11078;49.872;6.188;2022-08-04T01:52:16;18.20;7.70
21832;DHT22;11078;49.872;6.188;2022-08-04T01:54:43;18.20;7.50
21832;DHT22;11078;49.872;6.188;2022-08-04T01:57:11;18.10;7.50
21832;DHT22;11078;49.872;6.188;2022-08-04T01:59:38;18.10;7.60
21832;DHT22;11078;49.872;6.188;2022-08-04T02:02:05;18.10;7.80
21832;DHT22;11078;49.872;6.188;2022-08-04T02:04:31;18.00;7.80
21832;DHT22;11078;49.872;6.188;2022-08-04T02:07:23;17.90;8.00
21832;DHT22;11078;49.872;6.188;2022-08-04T02:10:06;17.90;11.70
21832;DHT22;11078;49.872;6.188;2022-08-04T02:12:50;17.80;9.40
21832;DHT22;11078;49.872;6.188;2022-08-04T02:15:41;17.80;10.20
21832;DHT22;11078;49.872;6.188;2022-08-04T02:18:23;17.80;12.10
21832;DHT22;11078;49.872;6.188;2022-08-04T02:20:56;17.80;10.00
21832;DHT22;11078;49.872;6.188;2022-08-04T02:23:30;17.70;9.60
21832;DHT22;11078;49.872;6.188;2022-08-04T02:25:59;17.80;10.00
21832;DHT22;11078;49.872;6.188;2022-08-04T02:28:34;17.70;8.80
21832;DHT22;11078;49.872;6.188;2022-08-04T02:34:08;17.60;9.90
21832;DHT22;11078;49.872;6.188;2022-08-04T02:36:39;17.70;11.40
21832;DHT22;11078;49.872;6.188;2022-08-04T02:39:07;17.60;9.10
21832;DHT22;11078;49.872;6.188;2022-08-04T02:41:35;17.60;9.10
21832;DHT22;11078;49.872;6.188;2022-08-04T02:44:04;17.60;9.10
21832;DHT22;11078;49.872;6.188;2022-08-04T02:46:32;17.60;9.10
21832;DHT22;11078;49.872;6.188;2022-08-04T02:49:02;17.50;9.20
21832;DHT22;11078;49.872;6.188;2022-08-04T02:51:33;17.50;9.40
21832;DHT22;11078;49.872;6.188;2022-08-04T02:54:03;17.50;9.40
21832;DHT22;11078;49.872;6.188;2022-08-04T02:56:31;17.50;9.70
21832;DHT22;11078;49.872;6.188;2022-08-04T02:59:01;17.40;9.40
21832;DHT22;11078;49.872;6.188;2022-08-04T03:01:27;17.40;9.60
21832;DHT22;11078;49.872;6.188;2022-08-04T03:04:21;17.30;9.50
21832;DHT22;11078;49.872;6.188;2022-08-04T03:07:19;17.30;12.10
21832;DHT22;11078;49.872;6.188;2022-08-04T03:10:14;17.30;11.90
21832;DHT22;11078;49.872;6.188;2022-08-04T03:16:14;17.20;12.20
21832;DHT22;11078;49.872;6.188;2022-08-04T03:24:59;17.20;11.90
21832;DHT22;11078;49.872;6.188;2022-08-04T03:27:55;17.10;11.30
21832;DHT22;11078;49.872;6.188;2022-08-04T03:33:44;17.00;12.70
21832;DHT22;11078;49.872;6.188;2022-08-04T03:42:33;17.00;12.20
21832;DHT22;11078;49.872;6.188;2022-08-04T03:45:26;16.90;12.20
21832;DHT22;11078;49.872;6.188;2022-08-04T03:51:11;17.00;13.00
21832;DHT22;11078;49.872;6.188;2022-08-04T04:00:08;16.90;12.40
21832;DHT22;11078;49.872;6.188;2022-08-04T04:05:51;16.80;11.90
21832;DHT22;11078;49.872;6.188;2022-08-04T04:08:39;16.80;12.50
21832;DHT22;11078;49.872;6.188;2022-08-04T04:22:53;16.60;11.50
21832;DHT22;11078;49.872;6.188;2022-08-04T04:28:37;16.70;12.10
21832;DHT22;11078;49.872;6.188;2022-08-04T04:37:18;16.70;13.60
21832;DHT22;11078;49.872;6.188;2022-08-04T04:40:27;16.70;12.40
21832;DHT22;11078;49.872;6.188;2022-08-04T04:46:16;16.80;13.40
21832;DHT22;11078;49.872;6.188;2022-08-04T04:48:53;16.80;12.70
21832;DHT22;11078;49.872;6.188;2022-08-04T04:51:41;16.80;12.60
21832;DHT22;11078;49.872;6.188;2022-08-04T04:54:33;16.80;12.50
21832;DHT22;11078;49.872;6.188;2022-08-04T05:03:04;17.00;11.60
21832;DHT22;11078;49.872;6.188;2022-08-04T05:08:42;17.10;13.60
21832;DHT22;11078;49.872;6.188;2022-08-04T05:11:37;17.10;12.70
21832;DHT22;11078;49.872;6.188;2022-08-04T05:14:22;17.20;13.50
21832;DHT22;11078;49.872;6.188;2022-08-04T05:17:00;17.40;12.80
21832;DHT22;11078;49.872;6.188;2022-08-04T05:22:21;17.80;11.50
21832;DHT22;11078;49.872;6.188;2022-08-04T05:24:53;18.20;10.90
21832;DHT22;11078;49.872;6.188;2022-08-04T05:27:29;18.70;9.70
21832;DHT22;11078;49.872;6.188;2022-08-04T05:30:01;19.30;9.00
21832;DHT22;11078;49.872;6.188;2022-08-04T05:32:34;19.70;8.30
21832;DHT22;11078;49.872;6.188;2022-08-04T05:35:14;19.90;8.20
21832;DHT22;11078;49.872;6.188;2022-08-04T05:37:43;20.00;7.70
21832;DHT22;11078;49.872;6.188;2022-08-04T05:40:11;20.20;7.80
21832;DHT22;11078;49.872;6.188;2022-08-04T05:42:39;20.40;7.60
21832;DHT22;11078;49.872;6.188;2022-08-04T05:45:07;20.60;7.40
21832;DHT22;11078;49.872;6.188;2022-08-04T05:47:35;20.80;7.20
21832;DHT22;11078;49.872;6.188;2022-08-04T05:50:04;21.10;6.80
21832;DHT22;11078;49.872;6.188;2022-08-04T05:52:31;21.40;6.60
21832;DHT22;11078;49.872;6.188;2022-08-04T05:54:59;21.80;6.00
21832;DHT22;11078;49.872;6.188;2022-08-04T05:57:27;22.30;5.70
21832;DHT22;11078;49.872;6.188;2022-08-04T05:59:54;22.80;5.20
21832;DHT22;11078;49.872;6.188;2022-08-04T06:02:22;23.30;4.70
21832;DHT22;11078;49.872;6.188;2022-08-04T06:04:49;23.70;4.10
21832;DHT22;11078;49.872;6.188;2022-08-04T06:07:17;24.20;3.40
21832;DHT22;11078;49.872;6.188;2022-08-04T06:09:43;24.50;2.90
21832;DHT22;11078;49.872;6.188;2022-08-04T06:12:20;24.90;2.30
21832;DHT22;11078;49.872;6.188;2022-08-04T06:14:49;25.20;1.40
21832;DHT22;11078;49.872;6.188;2022-08-04T06:17:24;25.40;1.30
21832;DHT22;11078;49.872;6.188;2022-08-04T06:19:54;25.60;1.00
21832;DHT22;11078;49.872;6.188;2022-08-04T06:22:22;26.00;1.00
21832;DHT22;11078;49.872;6.188;2022-08-04T06:24:51;26.30;1.00
21832;DHT22;11078;49.872;6.188;2022-08-04T06:27:21;26.50;1.00
21832;DHT22;11078;49.872;6.188;2022-08-04T06:29:49;26.80;1.00
21832;DHT22;11078;49.872;6.188;2022-08-04T06:32:16;27.00;1.00
21832;DHT22;11078;49.872;6.188;2022-08-04T06:35:01;27.30;1.00
21832;DHT22;11078;49.872;6.188;2022-08-04T06:37:27;27.50;1.00
21832;DHT22;11078;49.872;6.188;2022-08-04T06:39:54;27.70;1.00
21832;DHT22;11078;49.872;6.188;2022-08-04T06:42:24;27.90;1.00
21832;DHT22;11078;49.872;6.188;2022-08-04T06:44:54;28.20;1.00
21832;DHT22;11078;49.872;6.188;2022-08-04T06:47:21;28.50;1.00
21832;DHT22;11078;49.872;6.188;2022-08-04T06:49:50;28.70;1.00
21832;DHT22;11078;49.872;6.188;2022-08-04T06:52:18;29.00;1.00
21832;DHT22;11078;49.872;6.188;2022-08-04T06:54:47;29.30;1.00
21832;DHT22;11078;49.872;6.188;2022-08-04T06:57:15;29.50;1.00
21832;DHT22;11078;49.872;6.188;2022-08-04T06:59:44;29.80;1.00
21832;DHT22;11078;49.872;6.188;2022-08-04T07:02:14;29.90;1.00
21832;DHT22;11078;49.872;6.188;2022-08-04T07:04:43;29.80;1.00
21832;DHT22;11078;49.872;6.188;2022-08-04T07:07:16;29.90;1.00
21832;DHT22;11078;49.872;6.188;2022-08-04T07:09:43;30.10;1.00
21832;DHT22;11078;49.872;6.188;2022-08-04T07:12:10;30.40;1.00
21832;DHT22;11078;49.872;6.188;2022-08-04T07:14:39;30.60;1.00
21832;DHT22;11078;49.872;6.188;2022-08-04T07:17:07;30.90;1.00
21832;DHT22;11078;49.872;6.188;2022-08-04T07:19:35;31.30;1.00
21832;DHT22;11078;49.872;6.188;2022-08-04T07:22:02;31.60;1.00
21832;DHT22;11078;49.872;6.188;2022-08-04T07:24:35;32.00;1.00
21832;DHT22;11078;49.872;6.188;2022-08-04T07:27:02;32.40;1.00
21832;DHT22;11078;49.872;6.188;2022-08-04T07:29:29;32.50;1.00
21832;DHT22;11078;49.872;6.188;2022-08-04T07:31:57;32.70;1.00
21832;DHT22;11078;49.872;6.188;2022-08-04T07:34:24;32.90;1.00
21832;DHT22;11078;49.872;6.188;2022-08-04T07:36:53;32.90;1.00
21832;DHT22;11078;49.872;6.188;2022-08-04T07:39:20;32.80;1.00
21832;DHT22;11078;49.872;6.188;2022-08-04T07:41:47;32.80;1.00
21832;DHT22;11078;49.872;6.188;2022-08-04T07:44:14;33.00;1.00
21832;DHT22;11078;49.872;6.188;2022-08-04T07:46:41;33.20;1.00
21832;DHT22;11078;49.872;6.188;2022-08-04T07:49:08;33.30;1.00
21832;DHT22;11078;49.872;6.188;2022-08-04T07:51:36;33.40;1.00
21832;DHT22;11078;49.872;6.188;2022-08-04T07:54:03;33.40;1.00
21832;DHT22;11078;49.872;6.188;2022-08-04T07:56:33;33.50;1.00
21832;DHT22;11078;49.872;6.188;2022-08-04T07:59:00;33.50;1.00
21832;DHT22;11078;49.872;6.188;2022-08-04T08:01:26;33.60;1.00
21832;DHT22;11078;49.872;6.188;2022-08-04T08:03:54;33.60;1.00
21832;DHT22;11078;49.872;6.188;2022-08-04T08:06:22;33.50;1.00
21832;DHT22;11078;49.872;6.188;2022-08-04T08:08:48;33.60;1.00
21832;DHT22;11078;49.872;6.188;2022-08-04T08:11:15;33.80;1.00
21832;DHT22;11078;49.872;6.188;2022-08-04T08:13:41;34.10;1.00
21832;DHT22;11078;49.872;6.188;2022-08-04T08:16:10;34.40;1.00
21832;DHT22;11078;49.872;6.188;2022-08-04T08:18:36;34.50;1.00
21832;DHT22;11078;49.872;6.188;2022-08-04T08:21:03;34.70;1.00
21832;DHT22;11078;49.872;6.188;2022-08-04T08:23:31;34.70;1.00
21832;DHT22;11078;49.872;6.188;2022-08-04T08:25:59;34.90;1.00
21832;DHT22;11078;49.872;6.188;2022-08-04T08:28:27;35.10;1.00
21832;DHT22;11078;49.872;6.188;2022-08-04T08:30:53;35.30;1.00
21832;DHT22;11078;49.872;6.188;2022-08-04T08:39:06;35.80;1.00
21832;DHT22;11078;49.872;6.188;2022-08-04T08:50:43;36.00;1.00
21832;DHT22;11078;49.872;6.188;2022-08-04T08:53:44;36.10;1.00
21832;DHT22;11078;49.872;6.188;2022-08-04T08:56:33;36.10;1.00
21832;DHT22;11078;49.872;6.188;2022-08-04T08:59:28;36.20;1.00
21832;DHT22;11078;49.872;6.188;2022-08-04T09:11:08;36.50;1.00
21832;DHT22;11078;49.872;6.188;2022-08-04T09:13:44;36.60;1.00
21832;DHT22;11078;49.872;6.188;2022-08-04T09:16:34;36.80;1.00
21832;DHT22;11078;49.872;6.188;2022-08-04T09:19:09;37.00;1.00
21832;DHT22;11078;49.872;6.188;2022-08-04T09:21:47;37.10;1.00
21832;DHT22;11078;49.872;6.188;2022-08-04T09:27:09;37.40;1.00
21832;DHT22;11078;49.872;6.188;2022-08-04T09:29:46;37.20;1.00
21832;DHT22;11078;49.872;6.188;2022-08-04T09:35:21;36.90;1.00
21832;DHT22;11078;49.872;6.188;2022-08-04T09:38:09;36.70;1.00
21832;DHT22;11078;49.872;6.188;2022-08-04T09:40:50;36.70;1.00
21832;DHT22;11078;49.872;6.188;2022-08-04T09:43:35;36.80;1.00
21832;DHT22;11078;49.872;6.188;2022-08-04T09:46:12;36.70;1.00
21832;DHT22;11078;49.872;6.188;2022-08-04T09:49:10;36.60;1.00
21832;DHT22;11078;49.872;6.188;2022-08-04T09:51:57;36.60;1.00
21832;DHT22;11078;49.872;6.188;2022-08-04T09:54:42;36.60;1.00
21832;DHT22;11078;49.872;6.188;2022-08-04T10:00:12;36.50;1.00
21832;DHT22;11078;49.872;6.188;2022-08-04T10:02:49;36.50;1.00
21832;DHT22;11078;49.872;6.188;2022-08-04T10:05:21;36.40;1.00
21832;DHT22;11078;49.872;6.188;2022-08-04T10:10:55;36.90;1.00
21832;DHT22;11078;49.872;6.188;2022-08-04T10:13:56;37.00;1.00
21832;DHT22;11078;49.872;6.188;2022-08-04T10:16:45;37.30;1.00
21832;DHT22;11078;49.872;6.188;2022-08-04T10:19:23;37.60;1.00
21832;DHT22;11078;49.872;6.188;2022-08-04T10:22:10;37.70;1.00
21832;DHT22;11078;49.872;6.188;2022-08-04T10:27:57;37.90;1.00
21832;DHT22;11078;49.872;6.188;2022-08-04T10:30:25;37.90;1.00
21832;DHT22;11078;49.872;6.188;2022-08-04T10:33:10;37.70;1.00
21832;DHT22;11078;49.872;6.188;2022-08-04T10:36:00;37.50;1.00
21832;DHT22;11078;49.872;6.188;2022-08-04T10:38:32;37.40;1.00
21832;DHT22;11078;49.872;6.188;2022-08-04T10:41:31;37.40;1.00
21832;DHT22;11078;49.872;6.188;2022-08-04T10:44:13;37.50;1.00
21832;DHT22;11078;49.872;6.188;2022-08-04T10:49:36;38.10;1.00
21832;DHT22;11078;49.872;6.188;2022-08-04T10:52:22;38.30;1.00
21832;DHT22;11078;49.872;6.188;2022-08-04T10:55:07;38.50;1.00
21832;DHT22;11078;49.872;6.188;2022-08-04T10:57:39;38.70;1.00
21832;DHT22;11078;49.872;6.188;2022-08-04T11:00:10;38.60;1.00
21832;DHT22;11078;49.872;6.188;2022-08-04T11:02:50;38.50;1.00
21832;DHT22;11078;49.872;6.188;2022-08-04T11:08:34;38.10;1.00
21832;DHT22;11078;49.872;6.188;2022-08-04T11:11:23;37.90;1.00
21832;DHT22;11078;49.872;6.188;2022-08-04T11:16:48;37.50;1.00
21832;DHT22;11078;49.872;6.188;2022-08-04T11:19:45;37.20;1.00
21832;DHT22;11078;49.872;6.188;2022-08-04T11:22:28;36.90;1.00
21832;DHT22;11078;49.872;6.188;2022-08-04T11:25:12;36.70;1.00
21832;DHT22;11078;49.872;6.188;2022-08-04T11:28:02;36.50;1.00
21832;DHT22;11078;49.872;6.188;2022-08-04T11:30:35;36.30;1.00
21832;DHT22;11078;49.872;6.188;2022-08-04T11:36:19;36.00;1.00
21832;DHT22;11078;49.872;6.188;2022-08-04T11:44:39;35.70;1.00
21832;DHT22;11078;49.872;6.188;2022-08-04T11:47:17;35.60;1.00
21832;DHT22;11078;49.872;6.188;2022-08-04T11:49:50;35.60;1.00
21832;DHT22;11078;49.872;6.188;2022-08-04T11:52:19;35.60;1.00
21832;DHT22;11078;49.872;6.188;2022-08-04T11:54:47;35.60;1.00
21832;DHT22;11078;49.872;6.188;2022-08-04T11:57:14;35.60;1.00
21832;DHT22;11078;49.872;6.188;2022-08-04T11:59:41;35.60;1.00
21832;DHT22;11078;49.872;6.188;2022-08-04T12:02:31;35.60;1.00
21832;DHT22;11078;49.872;6.188;2022-08-04T12:04:59;35.60;1.00
21832;DHT22;11078;49.872;6.188;2022-08-04T12:10:37;36.10;1.00
21832;DHT22;11078;49.872;6.188;2022-08-04T12:16:19;36.80;1.00
21832;DHT22;11078;49.872;6.188;2022-08-04T12:18:57;37.30;1.00
21832;DHT22;11078;49.872;6.188;2022-08-04T12:24:33;37.90;1.00
21832;DHT22;11078;49.872;6.188;2022-08-04T12:29:47;38.40;1.00
21832;DHT22;11078;49.872;6.188;2022-08-04T12:32:40;38.50;1.00
21832;DHT22;11078;49.872;6.188;2022-08-04T12:38:13;38.80;1.00
21832;DHT22;11078;49.872;6.188;2022-08-04T12:40:48;38.80;1.00
21832;DHT22;11078;49.872;6.188;2022-08-04T12:46:06;38.40;1.00
21832;DHT22;11078;49.872;6.188;2022-08-04T12:48:35;38.30;1.00
21832;DHT22;11078;49.872;6.188;2022-08-04T12:51:02;38.30;1.00
21832;DHT22;11078;49.872;6.188;2022-08-04T12:53:32;38.40;1.00
21832;DHT22;11078;49.872;6.188;2022-08-04T12:56:02;38.50;1.00
21832;DHT22;11078;49.872;6.188;2022-08-04T12:58:32;38.60;1.00
21832;DHT22;11078;49.872;6.188;2022-08-04T13:01:04;38.70;1.00
21832;DHT22;11078;49.872;6.188;2022-08-04T13:03:48;38.90;1.00
21832;DHT22;11078;49.872;6.188;2022-08-04T13:06:24;38.90;1.00
21832;DHT22;11078;49.872;6.188;2022-08-04T13:08:52;38.90;1.00
21832;DHT22;11078;49.872;6.188;2022-08-04T13:11:21;38.80;1.00
21832;DHT22;11078;49.872;6.188;2022-08-04T13:13:53;38.60;1.00
21832;DHT22;11078;49.872;6.188;2022-08-04T13:16:29;38.60;1.00
21832;DHT22;11078;49.872;6.188;2022-08-04T13:18:56;38.50;1.00
21832;DHT22;11078;49.872;6.188;2022-08-04T13:21:26;38.60;1.00
21832;DHT22;11078;49.872;6.188;2022-08-04T13:23:56;38.60;1.00
21832;DHT22;11078;49.872;6.188;2022-08-04T13:26:25;38.80;1.00
21832;DHT22;11078;49.872;6.188;2022-08-04T13:28:53;39.00;1.00
21832;DHT22;11078;49.872;6.188;2022-08-04T13:31:26;39.20;1.00
21832;DHT22;11078;49.872;6.188;2022-08-04T13:34:02;39.50;1.00
21832;DHT22;11078;49.872;6.188;2022-08-04T13:36:31;39.50;1.00
21832;DHT22;11078;49.872;6.188;2022-08-04T13:39:04;39.50;1.00
21832;DHT22;11078;49.872;6.188;2022-08-04T13:41:35;39.30;1.00
21832;DHT22;11078;49.872;6.188;2022-08-04T13:44:02;39.20;1.00
21832;DHT22;11078;49.872;6.188;2022-08-04T13:46:39;39.10;1.00
21832;DHT22;11078;49.872;6.188;2022-08-04T13:49:09;39.10;1.00
21832;DHT22;11078;49.872;6.188;2022-08-04T13:51:36;39.10;1.00
21832;DHT22;11078;49.872;6.188;2022-08-04T13:54:03;39.00;1.00
21832;DHT22;11078;49.872;6.188;2022-08-04T13:56:37;39.10;1.00
21832;DHT22;11078;49.872;6.188;2022-08-04T13:59:09;39.00;1.00
21832;DHT22;11078;49.872;6.188;2022-08-04T14:01:39;38.80;1.00
21832;DHT22;11078;49.872;6.188;2022-08-04T14:04:14;38.60;1.00
21832;DHT22;11078;49.872;6.188;2022-08-04T14:06:54;38.50;1.00
21832;DHT22;11078;49.872;6.188;2022-08-04T14:09:23;38.30;1.00
21832;DHT22;11078;49.872;6.188;2022-08-04T14:11:54;38.10;1.00
21832;DHT22;11078;49.872;6.188;2022-08-04T14:14:25;38.00;1.00
21832;DHT22;11078;49.872;6.188;2022-08-04T14:17:04;37.90;1.00
21832;DHT22;11078;49.872;6.188;2022-08-04T14:22:28;37.90;1.00
21832;DHT22;11078;49.872;6.188;2022-08-04T14:24:59;38.10;1.00
21832;DHT22;11078;49.872;6.188;2022-08-04T14:27:27;38.30;1.00
21832;DHT22;11078;49.872;6.188;2022-08-04T14:29:54;38.50;1.00
21832;DHT22;11078;49.872;6.188;2022-08-04T14:32:21;38.70;1.00
21832;DHT22;11078;49.872;6.188;2022-08-04T14:34:47;38.80;1.00
21832;DHT22;11078;49.872;6.188;2022-08-04T14:37:15;38.80;1.00
21832;DHT22;11078;49.872;6.188;2022-08-04T14:39:44;38.80;1.00
21832;DHT22;11078;49.872;6.188;2022-08-04T14:42:12;38.80;1.00
21832;DHT22;11078;49.872;6.188;2022-08-04T14:44:56;38.80;1.00
21832;DHT22;11078;49.872;6.188;2022-08-04T14:47:41;38.70;1.00
21832;DHT22;11078;49.872;6.188;2022-08-04T14:50:09;38.50;1.00
21832;DHT22;11078;49.872;6.188;2022-08-04T14:52:36;38.30;1.00
21832;DHT22;11078;49.872;6.188;2022-08-04T14:55:19;38.10;1.00
21832;DHT22;11078;49.872;6.188;2022-08-04T14:57:46;38.00;1.00
21832;DHT22;11078;49.872;6.188;2022-08-04T15:00:24;37.80;1.00
21832;DHT22;11078;49.872;6.188;2022-08-04T15:02:50;37.70;1.00
21832;DHT22;11078;49.872;6.188;2022-08-04T15:05:19;37.60;1.00
21832;DHT22;11078;49.872;6.188;2022-08-04T15:07:47;37.40;1.00
21832;DHT22;11078;49.872;6.188;2022-08-04T15:10:13;37.30;1.00
21832;DHT22;11078;49.872;6.188;2022-08-04T15:12:39;37.20;1.00
21832;DHT22;11078;49.872;6.188;2022-08-04T15:15:06;37.10;1.00
21832;DHT22;11078;49.872;6.188;2022-08-04T15:17:32;37.10;1.00
21832;DHT22;11078;49.872;6.188;2022-08-04T15:19:58;37.00;1.00
21832;DHT22;11078;49.872;6.188;2022-08-04T15:22:24;37.00;1.00
21832;DHT22;11078;49.872;6.188;2022-08-04T15:24:50;36.90;1.00
21832;DHT22;11078;49.872;6.188;2022-08-04T15:27:17;36.80;1.00
21832;DHT22;11078;49.872;6.188;2022-08-04T15:29:45;36.80;1.00
21832;DHT22;11078;49.872;6.188;2022-08-04T15:32:14;36.80;1.00
21832;DHT22;11078;49.872;6.188;2022-08-04T15:34:46;36.70;1.00
21832;DHT22;11078;49.872;6.188;2022-08-04T15:37:25;36.70;1.00
21832;DHT22;11078;49.872;6.188;2022-08-04T15:40:03;36.70;1.00
21832;DHT22;11078;49.872;6.188;2022-08-04T15:42:35;36.80;1.00
21832;DHT22;11078;49.872;6.188;2022-08-04T15:45:16;36.80;1.00
21832;DHT22;11078;49.872;6.188;2022-08-04T15:51:01;36.60;1.00
21832;DHT22;11078;49.872;6.188;2022-08-04T15:53:32;36.50;1.00
21832;DHT22;11078;49.872;6.188;2022-08-04T15:59:13;36.30;1.00
21832;DHT22;11078;49.872;6.188;2022-08-04T16:01:43;36.20;1.00
21832;DHT22;11078;49.872;6.188;2022-08-04T16:04:25;36.10;1.00
21832;DHT22;11078;49.872;6.188;2022-08-04T16:07:03;36.10;1.00
21832;DHT22;11078;49.872;6.188;2022-08-04T16:09:30;35.90;1.00
21832;DHT22;11078;49.872;6.188;2022-08-04T16:11:59;35.90;1.00
21832;DHT22;11078;49.872;6.188;2022-08-04T16:14:34;35.80;1.00
21832;DHT22;11078;49.872;6.188;2022-08-04T16:17:15;35.70;1.00
21832;DHT22;11078;49.872;6.188;2022-08-04T16:19:53;35.70;1.00
21832;DHT22;11078;49.872;6.188;2022-08-04T16:22:40;35.60;1.00
21832;DHT22;11078;49.872;6.188;2022-08-04T16:25:07;35.50;1.00
21832;DHT22;11078;49.872;6.188;2022-08-04T16:27:36;35.40;1.00
21832;DHT22;11078;49.872;6.188;2022-08-04T16:30:05;35.30;1.00
21832;DHT22;11078;49.872;6.188;2022-08-04T16:32:46;35.30;1.00
21832;DHT22;11078;49.872;6.188;2022-08-04T16:35:24;35.20;1.00
21832;DHT22;11078;49.872;6.188;2022-08-04T16:37:53;35.10;1.00
21832;DHT22;11078;49.872;6.188;2022-08-04T16:40:35;35.00;1.00
21832;DHT22;11078;49.872;6.188;2022-08-04T16:43:10;34.90;1.00
21832;DHT22;11078;49.872;6.188;2022-08-04T16:45:40;34.90;1.00
21832;DHT22;11078;49.872;6.188;2022-08-04T16:48:07;34.70;1.00
21832;DHT22;11078;49.872;6.188;2022-08-04T16:50:46;34.60;1.00
21832;DHT22;11078;49.872;6.188;2022-08-04T16:53:14;34.50;1.00
21832;DHT22;11078;49.872;6.188;2022-08-04T16:55:48;34.40;1.00
21832;DHT22;11078;49.872;6.188;2022-08-04T16:58:16;34.20;1.00
21832;DHT22;11078;49.872;6.188;2022-08-04T17:00:42;34.20;1.00
21832;DHT22;11078;49.872;6.188;2022-08-04T17:03:10;34.10;1.00
21832;DHT22;11078;49.872;6.188;2022-08-04T17:05:37;34.00;1.00
21832;DHT22;11078;49.872;6.188;2022-08-04T17:08:03;33.90;1.00
21832;DHT22;11078;49.872;6.188;2022-08-04T17:10:35;33.80;1.00
21832;DHT22;11078;49.872;6.188;2022-08-04T17:13:20;33.80;1.00
21832;DHT22;11078;49.872;6.188;2022-08-04T17:15:48;33.70;1.00
21832;DHT22;11078;49.872;6.188;2022-08-04T17:18:18;33.60;1.00
21832;DHT22;11078;49.872;6.188;2022-08-04T17:20:52;33.60;1.00
21832;DHT22;11078;49.872;6.188;2022-08-04T17:26:14;33.40;1.00
21832;DHT22;11078;49.872;6.188;2022-08-04T17:28:41;33.30;1.00
21832;DHT22;11078;49.872;6.188;2022-08-04T17:31:10;33.30;1.00
21832;DHT22;11078;49.872;6.188;2022-08-04T17:33:38;33.20;1.00
21832;DHT22;11078;49.872;6.188;2022-08-04T17:36:05;33.10;1.00
21832;DHT22;11078;49.872;6.188;2022-08-04T17:38:36;33.10;1.00
21832;DHT22;11078;49.872;6.188;2022-08-04T17:41:06;33.00;1.00
21832;DHT22;11078;49.872;6.188;2022-08-04T17:43:43;32.90;1.00
21832;DHT22;11078;49.872;6.188;2022-08-04T17:46:26;32.80;1.00
21832;DHT22;11078;49.872;6.188;2022-08-04T17:48:58;32.80;1.00
21832;DHT22;11078;49.872;6.188;2022-08-04T17:51:36;32.70;1.00
21832;DHT22;11078;49.872;6.188;2022-08-04T17:54:19;32.60;1.00
21832;DHT22;11078;49.872;6.188;2022-08-04T17:56:49;32.50;1.00
21832;DHT22;11078;49.872;6.188;2022-08-04T17:59:18;32.40;1.00
21832;DHT22;11078;49.872;6.188;2022-08-04T18:01:52;32.30;1.00
21832;DHT22;11078;49.872;6.188;2022-08-04T18:04:32;32.20;1.00
21832;DHT22;11078;49.872;6.188;2022-08-04T18:07:08;32.10;1.00
21832;DHT22;11078;49.872;6.188;2022-08-04T18:09:37;32.10;1.00
21832;DHT22;11078;49.872;6.188;2022-08-04T18:12:11;32.00;1.00
21832;DHT22;11078;49.872;6.188;2022-08-04T18:14:41;31.80;1.00
21832;DHT22;11078;49.872;6.188;2022-08-04T18:17:08;31.70;1.00
21832;DHT22;11078;49.872;6.188;2022-08-04T18:19:35;31.50;1.00
21832;DHT22;11078;49.872;6.188;2022-08-04T18:22:03;31.40;1.00
21832;DHT22;11078;49.872;6.188;2022-08-04T18:24:31;31.30;1.00
21832;DHT22;11078;49.872;6.188;2022-08-04T18:26:58;31.10;1.00
21832;DHT22;11078;49.872;6.188;2022-08-04T18:29:24;31.00;1.00
21832;DHT22;11078;49.872;6.188;2022-08-04T18:31:50;30.80;1.00
21832;DHT22;11078;49.872;6.188;2022-08-04T18:34:16;30.70;1.00
21832;DHT22;11078;49.872;6.188;2022-08-04T18:36:42;30.50;1.00
21832;DHT22;11078;49.872;6.188;2022-08-04T18:39:09;30.30;1.00
21832;DHT22;11078;49.872;6.188;2022-08-04T18:41:36;30.10;1.00
21832;DHT22;11078;49.872;6.188;2022-08-04T18:44:02;30.00;1.00
21832;DHT22;11078;49.872;6.188;2022-08-04T18:46:28;29.80;1.00
21832;DHT22;11078;49.872;6.188;2022-08-04T18:48:54;29.70;1.00
21832;DHT22;11078;49.872;6.188;2022-08-04T18:51:21;29.40;1.00
21832;DHT22;11078;49.872;6.188;2022-08-04T18:53:51;29.30;1.00
21832;DHT22;11078;49.872;6.188;2022-08-04T18:56:17;29.10;1.00
21832;DHT22;11078;49.872;6.188;2022-08-04T18:58:44;29.00;1.00
21832;DHT22;11078;49.872;6.188;2022-08-04T19:01:10;28.80;1.00
21832;DHT22;11078;49.872;6.188;2022-08-04T19:03:39;28.70;1.00
21832;DHT22;11078;49.872;6.188;2022-08-04T19:06:06;28.50;1.00
21832;DHT22;11078;49.872;6.188;2022-08-04T19:08:36;28.40;1.00
21832;DHT22;11078;49.872;6.188;2022-08-04T19:11:04;28.30;1.00
21832;DHT22;11078;49.872;6.188;2022-08-04T19:13:32;28.10;1.00
21832;DHT22;11078;49.872;6.188;2022-08-04T19:16:03;27.90;1.00
21832;DHT22;11078;49.872;6.188;2022-08-04T19:18:32;27.70;1.00
21832;DHT22;11078;49.872;6.188;2022-08-04T19:21:02;27.60;1.00
21832;DHT22;11078;49.872;6.188;2022-08-04T19:23:29;27.50;1.00